Santa Maria, Texas
Current Conditions -  °F | °C
As of 9:15 PM on Wednesday 22 Oct 2014 (Local Time) from KT65 Reporting Station
Broken Clouds Broken Clouds  
Wind Chill: 75°   Ceiling: 11000
Heat Index: 75°   Visibility: 10mi
Dew Point: 67°   Wind: 3mph
Humidity: 74%   Direction: 70°ENE
Pressure: 30.02"   Gusts: NA
Location:  26.08°N, 97.85°W
Report Text: KT65 230215Z AUTO 07003KT 10SM BKN110 24/19 A3002 RMK AO2 T02400192
Loading
Personal Weather Stations






























Interactive Weather Map
Tropical Storm Tracking
New forecast layout! Learn more

10-Day Weather Forecast

Advertisements
Track Severe Weather on mobile